createdAt,value
2023-02-14T00:03:09.731Z,97965.59
2023-02-14T00:05:36.456Z,97960.38
2023-02-14T00:08:03.105Z,97974.25
2023-02-14T00:10:29.746Z,97982.13
2023-02-14T00:12:56.378Z,97976.84
2023-02-14T00:15:23.047Z,97998.94
2023-02-14T00:17:51.914Z,97997.59
2023-02-14T00:20:18.763Z,97991.66
2023-02-14T00:22:45.410Z,98008.16
2023-02-14T00:25:12.319Z,98007.06
2023-02-14T00:27:39.282Z,98013.00
2023-02-14T00:30:08.406Z,98012.44
2023-02-14T00:32:38.073Z,98014.22
2023-02-14T00:35:32.632Z,98016.16
2023-02-14T00:39:34.122Z,97997.63
2023-02-14T00:42:00.800Z,97998.25
2023-02-14T00:44:27.463Z,98005.56
2023-02-14T00:46:54.223Z,98015.22
2023-02-14T00:49:20.965Z,98006.38
2023-02-14T00:51:47.671Z,98017.81
2023-02-14T00:54:14.397Z,98009.25
2023-02-14T00:56:41.150Z,98003.22
2023-02-14T00:59:07.799Z,98000.25
2023-02-14T01:01:34.538Z,98001.84
2023-02-14T01:04:01.273Z,98000.97
2023-02-14T01:10:19.076Z,97998.94
2023-02-14T01:15:24.421Z,97996.41
2023-02-14T01:17:51.142Z,98004.25
2023-02-14T01:20:18.002Z,97992.09
2023-02-14T01:22:44.710Z,97989.63
2023-02-14T01:25:11.439Z,97979.13
2023-02-14T01:27:38.114Z,97987.78
2023-02-14T01:30:05.495Z,97973.75
2023-02-14T01:32:33.181Z,97973.75
2023-02-14T01:35:00.374Z,97963.31
2023-02-14T01:37:27.374Z,97966.69
2023-02-14T01:39:54.059Z,97965.47
2023-02-14T01:42:20.720Z,97972.16
2023-02-14T01:44:50.384Z,97969.88
2023-02-14T01:47:17.748Z,97970.53
2023-02-14T01:49:49.443Z,97968.22
2023-02-14T01:52:22.318Z,97980.50
2023-02-14T01:55:10.074Z,97971.91
2023-02-14T01:57:43.740Z,97963.31
2023-02-14T02:00:40.407Z,97967.81
2023-02-14T02:03:08.793Z,97965.28
2023-02-14T02:05:43.202Z,97973.16
2023-02-14T02:08:10.349Z,97962.81
2023-02-14T02:10:36.999Z,97965.47
2023-02-14T02:13:07.742Z,97958.59
2023-02-14T02:15:45.621Z,97961.97
2023-02-14T02:18:38.444Z,97960.31
2023-02-14T02:21:20.668Z,97965.47
2023-02-14T02:24:30.089Z,97962.81
2023-02-14T02:27:08.582Z,97964.53
2023-02-14T02:30:12.909Z,97981.28
2023-02-14T02:32:54.762Z,97987.38
2023-02-14T02:35:48.430Z,97979.59
2023-02-14T02:38:21.051Z,97981.38
2023-02-14T02:40:56.709Z,97978.88
2023-02-14T02:43:53.764Z,97979.22
2023-02-14T02:46:48.448Z,97982.56
2023-02-14T02:49:56.845Z,97975.56
2023-02-14T02:52:57.884Z,97971.94
2023-02-14T02:56:00.718Z,97977.84
2023-02-14T02:58:37.871Z,97981.44
2023-02-14T03:01:11.552Z,97977.19
2023-02-14T03:04:01.089Z,97983.16
2023-02-14T03:06:30.887Z,97976.06
2023-02-14T03:08:57.574Z,97971.78
2023-02-14T03:12:33.500Z,97971.78
2023-02-14T03:15:15.165Z,97978.78
2023-02-14T03:17:53.999Z,97973.97
2023-02-14T03:20:26.018Z,97973.28
2023-02-14T03:23:13.336Z,97965.56
2023-02-14T03:25:53.749Z,97966.41
2023-02-14T03:28:33.959Z,97974.41
2023-02-14T03:31:26.861Z,97976.84
2023-02-14T03:33:59.499Z,97964.69
2023-02-14T03:36:29.153Z,97970.84
2023-02-14T03:39:15.969Z,97963.06
2023-02-14T03:41:53.496Z,97968.47
2023-02-14T03:44:25.881Z,97974.75
2023-02-14T03:47:09.148Z,97969.56
2023-02-14T03:49:43.678Z,97965.19
2023-02-14T03:52:11.655Z,97972.13
2023-02-14T03:54:38.758Z,97963.31
2023-02-14T03:57:31.726Z,97965.78
2023-02-14T03:59:59.452Z,97960.50
2023-02-14T04:02:37.838Z,97953.56
2023-02-14T04:05:12.947Z,97955.19
2023-02-14T04:07:49.660Z,97952.53
2023-02-14T04:10:17.132Z,97951.66
2023-02-14T04:12:43.852Z,97955.97
2023-02-14T04:15:11.172Z,97944.75
2023-02-14T04:17:56.714Z,97945.78
2023-02-14T04:20:37.379Z,97942.41
2023-02-14T04:23:04.087Z,97939.75
2023-02-14T04:25:30.714Z,97936.97
2023-02-14T04:27:57.386Z,97927.59
2023-02-14T04:30:24.154Z,97935.47
2023-02-14T04:32:50.831Z,97929.09
2023-02-14T04:35:17.561Z,97924.81
2023-02-14T04:37:44.248Z,97928.44
2023-02-14T04:40:11.386Z,97928.31
2023-02-14T04:45:17.784Z,97914.22
2023-02-14T04:47:44.509Z,97925.69
2023-02-14T04:50:11.626Z,97918.81
2023-02-14T04:52:38.306Z,97913.72
2023-02-14T04:55:05.599Z,97906.81
2023-02-14T04:57:32.558Z,97904.78
2023-02-14T04:59:59.180Z,97907.34
2023-02-14T05:02:26.169Z,97911.03
2023-02-14T05:04:52.896Z,97908.50
2023-02-14T05:07:19.528Z,97904.28
2023-02-14T05:09:46.198Z,97910.31
2023-02-14T05:12:12.853Z,97912.16
2023-02-14T05:14:39.454Z,97917.47
2023-02-14T05:17:06.117Z,97915.38
2023-02-14T05:21:53.236Z,97909.50
2023-02-14T05:24:19.849Z,97907.16
2023-02-14T05:26:46.595Z,97908.13
2023-02-14T05:29:13.293Z,97911.81
2023-02-14T05:31:39.999Z,97909.22
2023-02-14T05:34:06.763Z,97904.84
2023-02-14T05:36:33.477Z,97898.94
2023-02-14T05:39:34.684Z,97890.75
2023-02-14T05:42:01.281Z,97889.38
2023-02-14T05:44:27.934Z,97897.13
2023-02-14T05:46:55.243Z,97892.47
2023-02-14T05:49:21.958Z,97891.94
2023-02-14T05:51:48.613Z,97885.94
2023-02-14T05:54:15.240Z,97879.84
2023-02-14T05:57:39.384Z,97885.94
2023-02-14T06:00:07.720Z,97884.06
2023-02-14T06:02:34.434Z,97884.06
2023-02-14T06:05:01.079Z,97881.47
2023-02-14T06:07:27.834Z,97887.50
2023-02-14T06:09:54.508Z,97884.03
2023-02-14T06:12:21.146Z,97884.06
2023-02-14T06:14:47.819Z,97884.00
2023-02-14T06:17:14.514Z,97888.25
2023-02-14T06:19:41.685Z,97887.25
2023-02-14T06:22:08.316Z,97888.19
2023-02-14T06:24:35.056Z,97889.25
2023-02-14T06:27:01.684Z,97889.34
2023-02-14T06:29:28.398Z,97886.00
2023-02-14T06:33:09.792Z,97884.13
2023-02-14T06:35:36.421Z,97888.34
2023-02-14T06:38:03.064Z,97884.34
2023-02-14T06:40:29.811Z,97886.00
2023-02-14T06:42:56.422Z,97891.16
2023-02-14T06:45:23.097Z,97881.56
2023-02-14T06:47:49.771Z,97878.75
2023-02-14T06:50:16.588Z,97871.66
2023-02-14T06:52:44.589Z,97871.63
2023-02-14T06:55:13.232Z,97872.00
2023-02-14T06:57:40.470Z,97869.00
2023-02-14T07:00:08.580Z,97868.03
2023-02-14T07:02:35.325Z,97869.25
2023-02-14T07:05:02.047Z,97862.59
2023-02-14T07:07:28.721Z,97857.16
2023-02-14T07:09:55.333Z,97849.38
2023-02-14T07:12:21.938Z,97844.59
2023-02-14T07:14:48.545Z,97846.75
2023-02-14T07:17:15.178Z,97836.13
2023-02-14T07:19:41.880Z,97836.88
2023-02-14T07:24:04.535Z,97844.66
2023-02-14T07:26:31.179Z,97849.91
2023-02-14T07:28:57.936Z,97845.19
2023-02-14T07:31:24.650Z,97845.41
2023-02-14T07:35:35.487Z,97839.16
2023-02-14T07:38:02.099Z,97829.44
2023-02-14T07:40:29.995Z,97833.78
2023-02-14T07:42:58.189Z,97835.59
2023-02-14T07:45:26.768Z,97834.63
2023-02-14T07:47:55.143Z,97821.84
2023-02-14T07:50:23.399Z,97825.06
2023-02-14T07:53:25.992Z,97822.88
2023-02-14T07:58:10.471Z,97820.16
2023-02-14T08:00:37.703Z,97822.09
2023-02-14T08:03:04.404Z,97817.03
2023-02-14T08:05:31.041Z,97813.47
2023-02-14T08:07:57.721Z,97809.09
2023-02-14T08:10:24.414Z,97810.75
2023-02-14T08:13:00.270Z,97815.78
2023-02-14T08:15:59.237Z,97803.38
2023-02-14T08:18:27.578Z,97806.31
2023-02-14T08:20:54.259Z,97796.91
2023-02-14T08:23:21.465Z,97798.94
2023-02-14T08:25:49.795Z,97799.63
2023-02-14T08:28:17.149Z,97805.59
2023-02-14T08:30:44.709Z,97795.66
2023-02-14T08:33:12.072Z,97792.69
2023-02-14T08:35:38.934Z,97789.38
2023-02-14T08:38:05.799Z,97797.50
2023-02-14T08:40:34.016Z,97789.06
2023-02-14T08:43:00.689Z,97790.34
2023-02-14T08:45:27.455Z,97800.66
2023-02-14T08:47:54.157Z,97802.44
2023-02-14T08:50:21.048Z,97793.28
2023-02-14T08:52:47.746Z,97802.31
2023-02-14T08:55:14.553Z,97814.00
2023-02-14T08:57:41.250Z,97806.19
2023-02-14T09:00:08.698Z,97810.72
2023-02-14T09:02:35.584Z,97805.19
2023-02-14T09:05:02.314Z,97810.25
2023-02-14T09:07:29.041Z,97800.53
2023-02-14T09:09:55.747Z,97816.81
2023-02-14T09:15:01.369Z,97803.44
2023-02-14T09:17:28.115Z,97803.00
2023-02-14T09:19:54.817Z,97804.06
2023-02-14T09:22:21.744Z,97808.59
2023-02-14T09:24:48.536Z,97807.00
2023-02-14T09:27:15.339Z,97809.69
2023-02-14T09:29:42.072Z,97806.88
2023-02-14T09:32:08.916Z,97808.66
2023-02-14T09:34:54.120Z,97804.88
2023-02-14T09:37:20.667Z,97809.78
2023-02-14T09:39:47.285Z,97804.88
2023-02-14T09:42:33.546Z,97800.75
2023-02-14T09:45:22.602Z,97797.75
2023-02-14T09:47:52.110Z,97789.34
2023-02-14T09:50:37.405Z,97790.19
2023-02-14T09:53:18.595Z,97783.56
2023-02-14T09:56:20.558Z,97782.06
2023-02-14T09:58:49.945Z,97776.34
2023-02-14T10:01:28.188Z,97777.19
2023-02-14T10:04:03.177Z,97776.78
2023-02-14T10:06:54.710Z,97774.22
2023-02-14T10:09:41.862Z,97782.59
2023-02-14T10:12:19.422Z,97774.00
2023-02-14T10:14:47.010Z,97778.44
2023-02-14T10:17:38.320Z,97778.06
2023-02-14T10:20:16.799Z,97771.00
2023-02-14T10:22:50.444Z,97771.38
2023-02-14T10:25:31.194Z,97763.47
2023-02-14T10:28:02.119Z,97772.63
2023-02-14T10:33:19.698Z,97760.69
2023-02-14T10:35:52.524Z,97764.09
2023-02-14T10:38:42.680Z,97765.94
2023-02-14T10:41:24.640Z,97753.59
2023-02-14T10:44:20.241Z,97754.44
2023-02-14T10:46:52.463Z,97747.34
2023-02-14T10:49:32.785Z,97753.78
2023-02-14T10:52:14.666Z,97741.78
2023-02-14T10:54:52.785Z,97737.34
2023-02-14T10:57:32.401Z,97734.94
2023-02-14T11:00:11.006Z,97730.22
2023-02-14T11:02:41.671Z,97731.66
2023-02-14T11:05:25.364Z,97731.31
2023-02-14T11:07:52.071Z,97738.19
2023-02-14T11:10:23.237Z,97726.63
2023-02-14T11:12:49.945Z,97727.81
2023-02-14T11:15:39.057Z,97719.13
2023-02-14T11:18:16.997Z,97723.94
2023-02-14T11:20:43.673Z,97719.44
2023-02-14T11:23:24.920Z,97713.91
2023-02-14T11:25:55.595Z,97711.97
2023-02-14T11:28:22.710Z,97704.13
2023-02-14T11:30:51.809Z,97715.72
2023-02-14T11:33:44.251Z,97713.66
2023-02-14T11:36:13.740Z,97704.13
2023-02-14T11:38:41.932Z,97701.09
2023-02-14T11:41:16.019Z,97696.84
2023-02-14T11:43:44.647Z,97701.34
2023-02-14T11:46:20.345Z,97702.69
2023-02-14T11:49:02.162Z,97700.63
2023-02-14T11:51:35.719Z,97707.03
2023-02-14T11:54:06.912Z,97697.34
2023-02-14T11:57:05.371Z,97688.78
2023-02-14T11:59:38.276Z,97689.88
2023-02-14T12:02:21.393Z,97694.00
2023-02-14T12:04:50.698Z,97681.56
2023-02-14T12:07:33.062Z,97691.13
2023-02-14T12:10:16.112Z,97679.63
2023-02-14T12:12:53.362Z,97683.59
2023-02-14T12:15:29.442Z,97680.72
2023-02-14T12:18:16.148Z,97677.34
2023-02-14T12:20:59.020Z,97679.16
2023-02-14T12:23:37.932Z,97676.63
2023-02-14T12:26:33.619Z,97673.25
2023-02-14T12:29:15.149Z,97668.41
2023-02-14T12:31:43.569Z,97670.91
2023-02-14T12:34:13.184Z,97668.38
2023-02-14T12:36:48.638Z,97668.25
2023-02-14T12:39:17.961Z,97665.34
2023-02-14T12:42:06.444Z,97663.44
2023-02-14T12:44:52.344Z,97658.09
2023-02-14T12:47:50.000Z,97659.78
2023-02-14T12:50:28.412Z,97656.00
2023-02-14T12:53:25.335Z,97650.00
2023-02-14T12:56:01.484Z,97648.34
2023-02-14T12:58:40.573Z,97642.41
2023-02-14T13:01:29.206Z,97650.97
2023-02-14T13:04:07.897Z,97651.22
2023-02-14T13:06:37.506Z,97646.47
2023-02-14T13:09:25.341Z,97637.91
2023-02-14T13:11:53.109Z,97635.22
2023-02-14T13:14:55.298Z,97635.19
2023-02-14T13:17:24.655Z,97633.25
2023-02-14T13:20:08.575Z,97639.63
2023-02-14T13:22:36.676Z,97636.41
2023-02-14T13:25:13.340Z,97637.09
2023-02-14T13:27:41.209Z,97634.69
2023-02-14T13:30:27.663Z,97627.69
2023-02-14T13:33:00.218Z,97630.06
2023-02-14T13:35:29.312Z,97628.75
2023-02-14T13:38:01.167Z,97625.44
2023-02-14T13:40:29.522Z,97628.63
2023-02-14T13:42:58.406Z,97624.78
2023-02-14T13:45:31.613Z,97618.59
2023-02-14T13:48:12.127Z,97621.34
2023-02-14T13:50:49.417Z,97615.16
2023-02-14T13:53:38.572Z,97621.06
2023-02-14T13:56:33.009Z,97622.31
2023-02-14T13:59:05.669Z,97618.22
2023-02-14T14:01:48.412Z,97620.47
2023-02-14T14:04:28.062Z,97613.81
2023-02-14T14:07:03.884Z,97611.59
2023-02-14T14:09:42.831Z,97618.53
2023-02-14T14:12:24.773Z,97615.69
2023-02-14T14:15:06.796Z,97619.22
2023-02-14T14:17:40.622Z,97620.38
2023-02-14T14:20:16.360Z,97627.28
2023-02-14T14:23:01.520Z,97625.59
2023-02-14T14:25:31.095Z,97617.97
2023-02-14T14:27:58.572Z,97627.63
2023-02-14T14:30:30.879Z,97622.75
2023-02-14T14:33:13.841Z,97624.22
2023-02-14T14:35:40.624Z,97630.88
2023-02-14T14:38:14.098Z,97625.78
2023-02-14T14:40:47.133Z,97629.44
2023-02-14T14:43:26.972Z,97634.59
2023-02-14T14:45:56.284Z,97631.06
2023-02-14T14:48:31.027Z,97635.16
2023-02-14T14:50:59.145Z,97641.88
2023-02-14T14:53:46.093Z,97637.19
2023-02-14T14:56:31.560Z,97642.13
2023-02-14T14:59:15.837Z,97634.41
2023-02-14T15:01:44.143Z,97645.34
2023-02-14T15:04:46.049Z,97645.53
2023-02-14T15:07:28.490Z,97650.94
2023-02-14T15:09:55.166Z,97650.25
2023-02-14T15:12:42.930Z,97653.47
2023-02-14T15:15:15.628Z,97655.53
2023-02-14T15:17:43.795Z,97651.91
2023-02-14T15:20:20.724Z,97658.59
2023-02-14T15:22:50.858Z,97663.97
2023-02-14T15:25:21.431Z,97664.34
2023-02-14T15:27:48.554Z,97659.94
2023-02-14T15:30:26.700Z,97666.13
2023-02-14T15:32:54.317Z,97663.81
2023-02-14T15:35:27.916Z,97658.78
2023-02-14T15:37:57.690Z,97660.13
2023-02-14T15:40:27.949Z,97662.09
2023-02-14T15:42:58.258Z,97671.31
2023-02-14T15:45:30.928Z,97679.34
2023-02-14T15:48:03.432Z,97675.72
2023-02-14T15:50:33.397Z,97674.31
2023-02-14T15:53:22.941Z,97679.09
2023-02-14T15:55:50.698Z,97678.72
2023-02-14T15:58:24.129Z,97685.84
2023-02-14T16:00:52.583Z,97681.88
2023-02-14T16:06:00.260Z,97691.84
2023-02-14T16:08:31.568Z,97690.31
2023-02-14T16:10:59.717Z,97680.91
2023-02-14T16:13:32.645Z,97696.91
2023-02-14T16:16:00.755Z,97689.91
2023-02-14T16:18:40.570Z,97700.72
2023-02-14T16:21:32.223Z,97702.84
2023-02-14T16:24:08.407Z,97711.88
2023-02-14T16:26:38.164Z,97717.41
2023-02-14T16:29:13.825Z,97716.63
2023-02-14T16:32:14.125Z,97711.63
2023-02-14T16:34:34.428Z,97712.91
2023-02-14T16:37:17.240Z,97714.09
2023-02-14T16:39:44.144Z,97721.34
2023-02-14T16:42:18.909Z,97732.09
2023-02-14T16:44:46.104Z,97734.22
2023-02-14T16:47:14.403Z,97733.69
2023-02-14T16:49:41.265Z,97741.09
2023-02-14T16:52:21.215Z,97739.72
2023-02-14T16:54:49.380Z,97734.81
2023-02-14T16:57:21.022Z,97740.38
2023-02-14T16:59:47.799Z,97743.19
2023-02-14T17:02:16.086Z,97738.06
2023-02-14T17:04:42.712Z,97751.47
2023-02-14T17:07:09.630Z,97758.84
2023-02-14T17:09:41.517Z,97750.34
2023-02-14T17:12:14.872Z,97742.00
2023-02-14T17:14:44.261Z,97752.88
2023-02-14T17:17:12.225Z,97746.91
2023-02-14T17:19:39.258Z,97747.28
2023-02-14T17:22:06.443Z,97755.09
2023-02-14T17:24:33.240Z,97759.91
2023-02-14T17:27:00.028Z,97754.25
2023-02-14T17:29:26.699Z,97757.59
2023-02-14T17:31:53.685Z,97766.78
2023-02-14T17:34:20.457Z,97759.34
2023-02-14T17:36:47.191Z,97750.38
2023-02-14T17:39:14.952Z,97758.59
2023-02-14T17:41:41.599Z,97755.50
2023-02-14T17:44:08.484Z,97754.88
2023-02-14T17:46:35.279Z,97746.44
2023-02-14T17:49:02.818Z,97747.16
2023-02-14T17:51:43.278Z,97753.69
2023-02-14T17:54:09.953Z,97754.78
2023-02-14T17:56:36.843Z,97757.31
2023-02-14T17:59:03.813Z,97767.34
2023-02-14T18:01:34.628Z,97757.34
2023-02-14T18:04:02.286Z,97762.53
2023-02-14T18:06:28.931Z,97760.06
2023-02-14T18:08:58.622Z,97761.28
2023-02-14T18:11:27.846Z,97758.59
2023-02-14T18:13:56.226Z,97750.78
2023-02-14T18:16:40.996Z,97762.56
2023-02-14T18:19:10.317Z,97753.84
2023-02-14T18:21:40.064Z,97755.13
2023-02-14T18:24:07.860Z,97754.34
2023-02-14T18:26:36.863Z,97761.50
2023-02-14T18:29:06.719Z,97764.28
2023-02-14T18:31:38.455Z,97770.44
2023-02-14T18:34:05.657Z,97768.13
2023-02-14T18:36:34.669Z,97763.00
2023-02-14T18:41:41.601Z,97764.13
2023-02-14T18:44:08.266Z,97765.28
2023-02-14T18:46:36.126Z,97750.75
2023-02-14T18:49:06.002Z,97755.28
2023-02-14T18:51:36.022Z,97763.22
2023-02-14T18:54:04.586Z,97764.28
2023-02-14T18:56:35.714Z,97757.31
2023-02-14T18:59:05.915Z,97756.66
2023-02-14T19:01:39.624Z,97770.91
2023-02-14T19:06:44.917Z,97768.63
2023-02-14T19:09:14.023Z,97770.47
2023-02-14T19:11:41.101Z,97768.91
2023-02-14T19:14:11.205Z,97770.59
2023-02-14T19:16:43.811Z,97766.47
2023-02-14T19:19:11.085Z,97767.44
2023-02-14T19:24:18.890Z,97768.66
2023-02-14T19:26:46.138Z,97782.75
2023-02-14T19:29:16.025Z,97777.78
2023-02-14T19:31:48.223Z,97774.59
2023-02-14T19:34:30.952Z,97773.91
2023-02-14T19:37:00.441Z,97777.38
2023-02-14T19:39:31.983Z,97772.44
2023-02-14T19:41:59.783Z,97773.25
2023-02-14T19:44:26.638Z,97773.75
2023-02-14T19:46:56.666Z,97778.56
2023-02-14T19:49:23.523Z,97781.34
2023-02-14T19:51:51.486Z,97772.56
2023-02-14T19:54:18.504Z,97765.63
2023-02-14T19:56:46.753Z,97770.22
2023-02-14T19:59:19.937Z,97772.97
2023-02-14T20:01:49.809Z,97778.34
2023-02-14T20:04:25.274Z,97766.22
2023-02-14T20:06:52.661Z,97769.75
2023-02-14T20:09:21.880Z,97774.06
2023-02-14T20:11:54.587Z,97776.75
2023-02-14T20:14:24.389Z,97774.66
2023-02-14T20:16:53.149Z,97763.28
2023-02-14T20:19:21.691Z,97761.81
2023-02-14T20:21:50.004Z,97760.78
2023-02-14T20:24:20.323Z,97754.81
2023-02-14T20:26:47.999Z,97760.91
2023-02-14T20:29:15.977Z,97761.94
2023-02-14T20:31:51.485Z,97760.31
2023-02-14T20:34:18.982Z,97759.34
2023-02-14T20:36:53.126Z,97759.41
2023-02-14T20:39:21.545Z,97753.44
2023-02-14T20:41:50.308Z,97761.41
2023-02-14T20:44:21.288Z,97757.88
2023-02-14T20:46:53.548Z,97764.03
2023-02-14T20:49:22.175Z,97750.88
2023-02-14T20:51:49.965Z,97749.13
2023-02-14T20:54:21.917Z,97746.63
2023-02-14T20:56:50.699Z,97749.44
2023-02-14T20:59:19.396Z,97751.22
2023-02-14T21:01:46.095Z,97749.38
2023-02-14T21:04:14.167Z,97747.78
2023-02-14T21:06:40.888Z,97734.94
2023-02-14T21:09:08.529Z,97742.78
2023-02-14T21:11:35.291Z,97743.66
2023-02-14T21:14:02.428Z,97749.88
2023-02-14T21:16:30.273Z,97746.59
2023-02-14T21:18:59.344Z,97758.72
2023-02-14T21:22:29.882Z,97753.16
2023-02-14T21:24:56.516Z,97758.28
2023-02-14T21:27:23.175Z,97759.31
2023-02-14T21:29:49.898Z,97767.16
2023-02-14T21:32:16.697Z,97758.88
2023-02-14T21:34:43.417Z,97767.91
2023-02-14T21:37:11.192Z,97761.97
2023-02-14T21:39:38.082Z,97763.72
2023-02-14T21:42:07.656Z,97763.91
2023-02-14T21:44:53.263Z,97764.75
2023-02-14T21:47:19.948Z,97765.44
2023-02-14T21:50:05.252Z,97761.09
2023-02-14T21:52:31.938Z,97754.19
2023-02-14T21:55:12.412Z,97758.13
2023-02-14T21:57:39.068Z,97759.06
2023-02-14T22:00:06.369Z,97761.50
2023-02-14T22:02:33.089Z,97762.31
2023-02-14T22:04:59.779Z,97757.03
2023-02-14T22:07:29.403Z,97756.19
2023-02-14T22:09:56.108Z,97755.25
2023-02-14T22:12:22.788Z,97754.41
2023-02-14T22:14:49.473Z,97761.41
2023-02-14T22:17:16.123Z,97765.06
2023-02-14T22:19:42.750Z,97754.59
2023-02-14T22:22:09.410Z,97757.09
2023-02-14T22:24:36.052Z,97772.84
2023-02-14T22:27:02.724Z,97772.03
2023-02-14T22:29:29.617Z,97768.44
2023-02-14T22:31:56.381Z,97772.72
2023-02-14T22:34:23.105Z,97770.09
2023-02-14T22:36:50.007Z,97777.19
2023-02-14T22:39:17.148Z,97769.53
2023-02-14T22:41:44.019Z,97773.91
2023-02-14T22:44:10.744Z,97772.31
2023-02-14T22:46:37.712Z,97766.34
2023-02-14T22:49:05.953Z,97776.81
2023-02-14T22:51:35.347Z,97781.13
2023-02-14T22:54:07.445Z,97772.31
2023-02-14T22:56:47.596Z,97777.53
2023-02-14T22:59:25.198Z,97773.91
2023-02-14T23:01:53.942Z,97781.91
2023-02-14T23:04:23.210Z,97772.44
2023-02-14T23:06:51.787Z,97775.16
2023-02-14T23:09:19.212Z,97770.84
2023-02-14T23:11:47.165Z,97774.25
2023-02-14T23:14:34.068Z,97768.00
2023-02-14T23:17:19.898Z,97772.22
2023-02-14T23:20:05.404Z,97767.53
2023-02-14T23:22:40.793Z,97764.81
2023-02-14T23:25:10.152Z,97762.03
2023-02-14T23:27:40.366Z,97769.75
2023-02-14T23:30:09.097Z,97761.91
2023-02-14T23:32:36.087Z,97760.81
2023-02-14T23:35:02.841Z,97759.78
2023-02-14T23:37:29.474Z,97752.69
2023-02-14T23:39:56.258Z,97755.22
2023-02-14T23:42:22.866Z,97746.41
2023-02-14T23:47:27.983Z,97744.66
2023-02-14T23:49:54.654Z,97743.59
2023-02-14T23:52:21.340Z,97738.00
2023-02-14T23:54:47.956Z,97737.81
2023-02-14T23:57:14.608Z,97731.69
2023-02-14T23:59:41.243Z,97734.19
